createdAt,value
2023-05-19T00:01:19.164Z,100062.06
2023-05-19T00:03:55.348Z,100064.34
2023-05-19T00:06:31.847Z,100068.00
2023-05-19T00:09:06.079Z,100064.19
2023-05-19T00:11:41.647Z,100058.88
2023-05-19T00:14:13.751Z,100064.03
2023-05-19T00:16:45.850Z,100054.91
2023-05-19T00:19:18.929Z,100054.91
2023-05-19T00:21:50.882Z,100049.28
2023-05-19T00:24:25.611Z,100046.63
2023-05-19T00:26:57.412Z,100040.97
2023-05-19T00:29:29.432Z,100043.13
2023-05-19T00:32:01.240Z,100040.16
2023-05-19T00:34:33.550Z,100038.31
2023-05-19T00:37:05.403Z,100040.31
2023-05-19T00:39:37.205Z,100038.50
2023-05-19T00:42:09.516Z,100037.97
2023-05-19T00:44:43.074Z,100034.00
2023-05-19T00:47:14.941Z,100029.03
2023-05-19T00:49:46.727Z,100030.69
2023-05-19T00:52:18.635Z,100033.53
2023-05-19T00:54:52.021Z,100026.56
2023-05-19T00:57:26.089Z,100039.09
2023-05-19T00:59:57.965Z,100021.88
2023-05-19T01:02:30.039Z,100031.00
2023-05-19T01:05:02.646Z,100035.47
2023-05-19T01:07:34.566Z,100031.78
2023-05-19T01:10:06.734Z,100034.28
2023-05-19T01:12:40.849Z,100030.63
2023-05-19T01:15:13.903Z,100025.97
2023-05-19T01:17:49.604Z,100027.47
2023-05-19T01:20:36.384Z,100028.63
2023-05-19T01:23:41.062Z,100018.53
2023-05-19T01:26:41.038Z,100024.34
2023-05-19T01:29:21.076Z,100028.47
2023-05-19T01:31:55.586Z,100020.97
2023-05-19T01:34:27.911Z,100028.09
2023-05-19T01:37:01.099Z,100022.75
2023-05-19T01:39:33.552Z,100023.72
2023-05-19T01:42:06.725Z,100017.31
2023-05-19T01:44:38.880Z,100018.47
2023-05-19T01:47:14.058Z,100022.59
2023-05-19T01:49:46.657Z,100026.25
2023-05-19T01:52:18.586Z,100027.88
2023-05-19T01:54:50.534Z,100029.03
2023-05-19T01:57:25.370Z,100031.97
2023-05-19T02:00:19.888Z,100020.41
2023-05-19T02:03:35.053Z,100025.50
2023-05-19T02:06:29.841Z,100029.91
2023-05-19T02:09:34.903Z,100025.69
2023-05-19T02:12:19.349Z,100025.84
2023-05-19T02:14:59.946Z,100024.13
2023-05-19T02:17:36.207Z,100029.06
2023-05-19T02:20:12.067Z,100025.59
2023-05-19T02:22:45.331Z,100032.06
2023-05-19T02:25:18.496Z,100027.94
2023-05-19T02:27:52.493Z,100021.88
2023-05-19T02:30:24.412Z,100016.03
2023-05-19T02:32:56.335Z,100016.53
2023-05-19T02:35:28.352Z,100013.38
2023-05-19T02:38:00.138Z,100011.25
2023-05-19T02:40:34.238Z,100001.63
2023-05-19T02:43:06.442Z,100003.78
2023-05-19T02:45:38.830Z,100005.91
2023-05-19T02:48:11.025Z,100003.59
2023-05-19T02:50:46.004Z,99998.28
2023-05-19T02:53:17.795Z,100000.53
2023-05-19T02:55:49.590Z,99995.41
2023-05-19T02:58:21.333Z,99994.22
2023-05-19T03:00:53.126Z,99996.03
2023-05-19T03:03:25.003Z,99994.22
2023-05-19T03:05:57.026Z,99992.41
2023-05-19T03:08:28.909Z,99987.25
2023-05-19T03:11:00.762Z,99984.59
2023-05-19T03:13:32.870Z,99990.97
2023-05-19T03:16:04.982Z,100002.00
2023-05-19T03:18:37.267Z,99994.06
2023-05-19T03:21:09.224Z,100003.50
2023-05-19T03:23:41.157Z,100002.06
2023-05-19T03:26:15.049Z,100003.03
2023-05-19T03:28:46.894Z,99998.72
2023-05-19T03:31:21.800Z,100000.53
2023-05-19T03:33:53.774Z,100001.38
2023-05-19T03:36:32.117Z,99998.56
2023-05-19T03:39:06.824Z,100007.09
2023-05-19T03:41:38.601Z,100003.63
2023-05-19T03:44:10.405Z,100002.94
2023-05-19T03:46:42.556Z,100004.59
2023-05-19T03:49:33.132Z,99997.03
2023-05-19T03:52:19.776Z,100001.00
2023-05-19T03:54:58.871Z,100000.38
2023-05-19T03:57:30.670Z,99990.09
2023-05-19T04:00:04.080Z,100003.19
2023-05-19T04:02:44.057Z,99993.16
2023-05-19T04:05:16.102Z,99986.88
2023-05-19T04:07:47.973Z,99996.47
2023-05-19T04:10:20.669Z,99985.72
2023-05-19T04:12:52.843Z,100000.97
2023-05-19T04:15:27.028Z,99991.22
2023-05-19T04:18:00.400Z,99999.28
2023-05-19T04:20:32.402Z,100001.59
2023-05-19T04:23:07.195Z,99996.91
2023-05-19T04:25:40.917Z,99993.78
2023-05-19T04:28:13.022Z,99999.88
2023-05-19T04:30:46.678Z,99994.81
2023-05-19T04:33:21.561Z,99999.13
2023-05-19T04:35:53.418Z,100004.91
2023-05-19T04:38:25.204Z,100001.09
2023-05-19T04:41:01.692Z,100009.38
2023-05-19T04:43:34.348Z,100003.31
2023-05-19T04:46:06.485Z,100005.97
2023-05-19T04:48:38.944Z,100005.53
2023-05-19T04:51:14.207Z,100002.41
2023-05-19T04:53:46.235Z,100002.81
2023-05-19T04:56:19.385Z,100006.97
2023-05-19T04:58:51.621Z,100011.72
2023-05-19T05:01:26.626Z,100006.94
2023-05-19T05:04:01.200Z,100011.41
2023-05-19T05:06:33.562Z,100008.28
2023-05-19T05:09:05.488Z,99999.22
2023-05-19T05:11:37.530Z,100003.88
2023-05-19T05:14:12.801Z,100002.56
2023-05-19T05:16:46.528Z,100010.03
2023-05-19T05:19:24.119Z,99999.91
2023-05-19T05:21:57.429Z,100006.22
2023-05-19T05:24:29.505Z,100004.19
2023-05-19T05:27:05.850Z,99992.63
2023-05-19T05:29:38.356Z,99996.56
2023-05-19T05:32:11.582Z,99993.94
2023-05-19T05:34:43.786Z,99994.59
2023-05-19T05:37:16.249Z,99989.09
2023-05-19T05:39:48.190Z,99987.28
2023-05-19T05:42:20.383Z,99990.22
2023-05-19T05:44:53.318Z,99984.19
2023-05-19T05:47:25.499Z,99978.75
2023-05-19T05:49:57.765Z,99987.59
2023-05-19T05:52:31.066Z,99983.66
2023-05-19T05:55:05.846Z,99985.03
2023-05-19T05:57:41.905Z,99985.34
2023-05-19T06:00:17.517Z,99989.88
2023-05-19T06:02:57.337Z,99984.06
2023-05-19T06:05:31.243Z,99986.81
2023-05-19T06:08:03.798Z,99985.50
2023-05-19T06:10:37.005Z,99978.59
2023-05-19T06:13:12.192Z,99983.00
2023-05-19T06:15:46.183Z,99983.97
2023-05-19T06:18:32.549Z,99981.19
2023-05-19T06:21:06.349Z,99988.75
2023-05-19T06:23:38.247Z,99988.47
2023-05-19T06:26:12.511Z,99978.66
2023-05-19T06:28:44.394Z,99987.72
2023-05-19T06:31:17.024Z,99988.28
2023-05-19T06:33:56.850Z,99981.13
2023-05-19T06:36:29.988Z,99989.38
2023-05-19T06:39:04.236Z,99988.56
2023-05-19T06:41:37.397Z,99983.09
2023-05-19T06:44:09.453Z,99983.91
2023-05-19T06:46:41.469Z,99978.72
2023-05-19T06:49:13.509Z,99978.75
2023-05-19T06:51:49.498Z,99987.75
2023-05-19T06:54:23.547Z,99984.28
2023-05-19T06:56:55.432Z,99984.56
2023-05-19T06:59:27.417Z,99989.78
2023-05-19T07:01:59.573Z,99981.56
2023-05-19T07:04:31.526Z,99986.91
2023-05-19T07:07:03.574Z,99994.28
2023-05-19T07:09:38.602Z,99993.66
2023-05-19T07:12:10.635Z,99998.00
2023-05-19T07:14:42.787Z,99999.88
2023-05-19T07:17:15.852Z,99989.56
2023-05-19T07:19:50.004Z,99986.63
2023-05-19T07:22:22.399Z,99985.16
2023-05-19T07:24:57.305Z,99983.94
2023-05-19T07:27:29.272Z,99979.22
2023-05-19T07:30:01.226Z,99975.53
2023-05-19T07:32:33.239Z,99980.28
2023-05-19T07:35:09.139Z,99991.50
2023-05-19T07:37:41.739Z,99982.91
2023-05-19T07:40:13.748Z,99988.56
2023-05-19T07:42:49.737Z,99993.22
2023-05-19T07:45:21.606Z,99984.25
2023-05-19T07:47:54.678Z,99997.34
2023-05-19T07:50:26.873Z,99975.81
2023-05-19T07:52:58.778Z,99979.84
2023-05-19T07:55:30.958Z,99983.88
2023-05-19T07:58:03.144Z,99974.72
2023-05-19T08:00:35.505Z,99977.19
2023-05-19T08:03:08.225Z,99972.66
2023-05-19T08:05:40.701Z,99976.34
2023-05-19T08:08:12.923Z,99973.06
2023-05-19T08:10:45.258Z,99975.59
2023-05-19T08:13:17.297Z,99975.91
2023-05-19T08:15:49.264Z,99972.03
2023-05-19T08:18:21.564Z,99975.78
2023-05-19T08:20:56.436Z,99971.22
2023-05-19T08:23:28.445Z,99962.13
2023-05-19T08:26:00.769Z,99954.88
2023-05-19T08:28:32.776Z,99958.25
2023-05-19T08:31:04.781Z,99962.94
2023-05-19T08:33:39.734Z,99970.84
2023-05-19T08:36:11.926Z,99955.06
2023-05-19T08:38:43.899Z,99948.69
2023-05-19T08:41:17.589Z,99947.50
2023-05-19T08:43:50.206Z,99949.06
2023-05-19T08:46:25.035Z,99942.63
2023-05-19T08:49:05.019Z,99948.41
2023-05-19T08:51:58.708Z,99942.06
2023-05-19T08:54:38.348Z,99943.72
2023-05-19T08:57:11.042Z,99939.84
2023-05-19T08:59:44.358Z,99937.38
2023-05-19T09:02:16.751Z,99941.88
2023-05-19T09:04:49.446Z,99936.06
2023-05-19T09:07:23.032Z,99938.94
2023-05-19T09:09:54.937Z,99934.53
2023-05-19T09:12:27.050Z,99923.09
2023-05-19T09:14:59.860Z,99917.69
2023-05-19T09:17:32.189Z,99914.44
2023-05-19T09:20:11.022Z,99912.91
2023-05-19T09:22:50.717Z,99918.56
2023-05-19T09:25:24.055Z,99907.84
2023-05-19T09:27:55.818Z,99903.63
2023-05-19T09:30:27.731Z,99915.88
2023-05-19T09:32:59.615Z,99911.06
2023-05-19T09:35:31.939Z,99907.81
2023-05-19T09:38:04.110Z,99913.69
2023-05-19T09:40:36.289Z,99900.34
2023-05-19T09:43:08.936Z,99912.13
2023-05-19T09:45:40.890Z,99905.88
2023-05-19T09:48:15.556Z,99898.91
2023-05-19T09:50:48.746Z,99904.31
2023-05-19T09:53:22.041Z,99900.13
2023-05-19T09:55:58.044Z,99894.38
2023-05-19T09:58:37.389Z,99888.28
2023-05-19T10:01:09.825Z,99885.72
2023-05-19T10:03:42.706Z,99892.72
2023-05-19T10:06:15.896Z,99887.31
2023-05-19T10:08:50.611Z,99896.16
2023-05-19T10:11:23.835Z,99895.56
2023-05-19T10:13:56.233Z,99901.47
2023-05-19T10:16:29.216Z,99900.50
2023-05-19T10:19:02.689Z,99888.22
2023-05-19T10:21:37.492Z,99900.03
2023-05-19T10:24:10.878Z,99884.22
2023-05-19T10:27:12.055Z,99875.31
2023-05-19T10:29:49.865Z,99864.75
2023-05-19T10:32:28.855Z,99885.25
2023-05-19T10:35:19.029Z,99866.53
2023-05-19T10:38:22.652Z,99875.84
2023-05-19T10:41:13.188Z,99877.94
2023-05-19T10:43:55.161Z,99877.28
2023-05-19T10:46:28.656Z,99878.00
2023-05-19T10:49:00.869Z,99875.38
2023-05-19T10:51:34.063Z,99874.38
2023-05-19T10:54:11.541Z,99868.13
2023-05-19T10:56:47.567Z,99870.09
2023-05-19T10:59:33.751Z,99869.22
2023-05-19T11:02:07.426Z,99868.44
2023-05-19T11:04:55.566Z,99866.84
2023-05-19T11:07:28.251Z,99871.81
2023-05-19T11:10:00.308Z,99870.81
2023-05-19T11:12:42.098Z,99867.38
2023-05-19T11:15:15.430Z,99856.09
2023-05-19T11:17:49.393Z,99860.22
2023-05-19T11:20:29.779Z,99860.44
2023-05-19T11:23:10.929Z,99862.47
2023-05-19T11:25:45.222Z,99860.44
2023-05-19T11:28:20.066Z,99857.72
2023-05-19T11:30:57.838Z,99848.84
2023-05-19T11:33:33.063Z,99855.44
2023-05-19T11:36:05.559Z,99853.66
2023-05-19T11:38:37.992Z,99850.09
2023-05-19T11:41:09.952Z,99851.50
2023-05-19T11:43:42.214Z,99846.13
2023-05-19T11:46:14.800Z,99844.75
2023-05-19T11:48:47.712Z,99845.16
2023-05-19T11:51:21.792Z,99853.34
2023-05-19T11:53:54.887Z,99839.00
2023-05-19T11:56:26.875Z,99855.28
2023-05-19T11:58:58.799Z,99845.31
2023-05-19T12:01:33.716Z,99843.13
2023-05-19T12:04:11.660Z,99829.50
2023-05-19T12:06:44.060Z,99836.63
2023-05-19T12:09:16.133Z,99839.53
2023-05-19T12:11:48.207Z,99841.69
2023-05-19T12:14:20.228Z,99827.78
2023-05-19T12:16:52.368Z,99836.72
2023-05-19T12:19:26.190Z,99837.16
2023-05-19T12:21:58.277Z,99848.84
2023-05-19T12:24:30.900Z,99838.94
2023-05-19T12:27:24.601Z,99840.00
2023-05-19T12:30:00.190Z,99847.75
2023-05-19T12:32:35.878Z,99842.50
2023-05-19T12:35:08.489Z,99838.00
2023-05-19T12:37:43.684Z,99842.59
2023-05-19T12:40:17.108Z,99837.88
2023-05-19T12:42:53.462Z,99831.94
2023-05-19T12:45:28.096Z,99835.59
2023-05-19T12:48:03.505Z,99831.28
2023-05-19T12:50:37.939Z,99831.06
2023-05-19T12:53:11.420Z,99836.47
2023-05-19T12:55:45.575Z,99824.75
2023-05-19T12:58:17.613Z,99829.28
2023-05-19T13:00:53.218Z,99828.44
2023-05-19T13:03:25.713Z,99832.34
2023-05-19T13:05:59.796Z,99830.53
2023-05-19T13:08:32.314Z,99840.44
2023-05-19T13:11:04.533Z,99830.53
2023-05-19T13:13:36.421Z,99821.69
2023-05-19T13:16:08.289Z,99833.00
2023-05-19T13:18:40.225Z,99823.88
2023-05-19T13:21:12.055Z,99827.47
2023-05-19T13:23:44.071Z,99818.00
2023-05-19T13:26:16.393Z,99825.66
2023-05-19T13:28:51.098Z,99828.75
2023-05-19T13:31:22.979Z,99815.34
2023-05-19T13:33:55.071Z,99816.94
2023-05-19T13:36:28.002Z,99822.06
2023-05-19T13:39:00.938Z,99824.75
2023-05-19T13:41:33.045Z,99814.06
2023-05-19T13:44:05.052Z,99819.25
2023-05-19T13:46:45.566Z,99809.41
2023-05-19T13:49:18.822Z,99808.19
2023-05-19T13:51:50.752Z,99805.31
2023-05-19T13:54:22.748Z,99809.84
2023-05-19T13:56:54.660Z,99811.09
2023-05-19T13:59:26.822Z,99808.63
2023-05-19T14:02:01.006Z,99812.50
2023-05-19T14:04:33.541Z,99809.66
2023-05-19T14:07:07.445Z,99812.56
2023-05-19T14:09:39.712Z,99809.88
2023-05-19T14:12:12.336Z,99812.13
2023-05-19T14:14:44.302Z,99818.31
2023-05-19T14:17:16.211Z,99822.63
2023-05-19T14:19:48.214Z,99823.69
2023-05-19T14:22:20.164Z,99825.09
2023-05-19T14:24:52.158Z,99811.75
2023-05-19T14:27:24.415Z,99807.22
2023-05-19T14:29:56.356Z,99811.31
2023-05-19T14:32:30.319Z,99811.13
2023-05-19T14:35:02.885Z,99814.81
2023-05-19T14:37:34.851Z,99814.63
2023-05-19T14:40:07.310Z,99811.97
2023-05-19T14:42:39.600Z,99818.94
2023-05-19T14:45:11.948Z,99805.78
2023-05-19T14:47:43.902Z,99805.34
2023-05-19T14:50:16.119Z,99807.44
2023-05-19T14:52:48.131Z,99801.06
2023-05-19T14:55:20.099Z,99805.16
2023-05-19T14:57:52.033Z,99814.63
2023-05-19T15:00:26.265Z,99809.69
2023-05-19T15:03:00.961Z,99812.56
2023-05-19T15:05:32.941Z,99810.94
2023-05-19T15:08:06.379Z,99822.44
2023-05-19T15:10:38.439Z,99819.31
2023-05-19T15:13:12.330Z,99817.28
2023-05-19T15:15:44.458Z,99808.25
2023-05-19T15:18:18.892Z,99818.72
2023-05-19T15:20:50.968Z,99819.97
2023-05-19T15:23:23.044Z,99820.81
2023-05-19T15:25:54.943Z,99819.34
2023-05-19T15:28:27.146Z,99813.78
2023-05-19T15:30:59.136Z,99807.81
2023-05-19T15:33:31.147Z,99809.66
2023-05-19T15:36:03.143Z,99809.66
2023-05-19T15:38:36.511Z,99814.63
2023-05-19T15:41:08.948Z,99810.91
2023-05-19T15:43:41.602Z,99809.69
2023-05-19T15:46:13.603Z,99802.28
2023-05-19T15:48:45.492Z,99811.53
2023-05-19T15:51:17.686Z,99810.47
2023-05-19T15:53:49.727Z,99799.41
2023-05-19T15:56:22.583Z,99802.06
2023-05-19T15:58:54.711Z,99810.47
2023-05-19T16:01:27.178Z,99806.19
2023-05-19T16:04:00.880Z,99807.41
2023-05-19T16:06:32.874Z,99815.41
2023-05-19T16:09:04.785Z,99805.97
2023-05-19T16:11:36.770Z,99808.63
2023-05-19T16:14:08.578Z,99807.84
2023-05-19T16:16:40.693Z,99811.72
2023-05-19T16:19:13.666Z,99811.28
2023-05-19T16:21:46.119Z,99812.34
2023-05-19T16:24:18.195Z,99801.22
2023-05-19T16:26:50.515Z,99808.41
2023-05-19T16:29:22.929Z,99810.06
2023-05-19T16:31:55.309Z,99808.41
2023-05-19T16:34:29.948Z,99809.41
2023-05-19T16:37:02.815Z,99808.56
2023-05-19T16:39:37.314Z,99806.28
2023-05-19T16:42:09.861Z,99802.97
2023-05-19T16:44:42.768Z,99808.72
2023-05-19T16:47:14.730Z,99800.69
2023-05-19T16:49:46.879Z,99806.25
2023-05-19T16:52:18.781Z,99796.59
2023-05-19T16:54:50.807Z,99801.50
2023-05-19T16:57:22.931Z,99805.41
2023-05-19T16:59:57.458Z,99811.34
2023-05-19T17:02:29.598Z,99811.75
2023-05-19T17:05:01.609Z,99814.81
2023-05-19T17:07:33.572Z,99807.38
2023-05-19T17:10:06.130Z,99811.91
2023-05-19T17:12:38.313Z,99814.13
2023-05-19T17:15:11.066Z,99814.53
2023-05-19T17:17:43.117Z,99806.09
2023-05-19T17:20:15.091Z,99815.34
2023-05-19T17:22:47.074Z,99812.84
2023-05-19T17:25:18.929Z,99813.78
2023-05-19T17:27:52.454Z,99811.94
2023-05-19T17:30:24.444Z,99823.63
2023-05-19T17:32:59.510Z,99824.00
2023-05-19T17:35:33.660Z,99818.06
2023-05-19T17:38:05.865Z,99828.91
2023-05-19T17:40:38.614Z,99832.72
2023-05-19T17:43:12.035Z,99831.09
2023-05-19T17:45:44.088Z,99828.97
2023-05-19T17:48:16.382Z,99822.78
2023-05-19T17:50:48.744Z,99822.41
2023-05-19T17:53:21.505Z,99820.97
2023-05-19T17:55:58.920Z,99815.41
2023-05-19T17:58:31.283Z,99823.34
2023-05-19T18:01:03.362Z,99835.44
2023-05-19T18:03:38.692Z,99823.75
2023-05-19T18:06:12.260Z,99824.13
2023-05-19T18:08:50.663Z,99823.72
2023-05-19T18:11:23.327Z,99821.41
2023-05-19T18:13:55.318Z,99821.22
2023-05-19T18:16:28.005Z,99825.50
2023-05-19T18:19:00.190Z,99824.25
2023-05-19T18:21:32.108Z,99820.50
2023-05-19T18:24:05.493Z,99818.22
2023-05-19T18:26:41.887Z,99821.47
2023-05-19T18:29:15.151Z,99815.53
2023-05-19T18:31:47.118Z,99818.72
2023-05-19T18:34:20.963Z,99826.25
2023-05-19T18:36:52.794Z,99829.69
2023-05-19T18:39:29.446Z,99838.09
2023-05-19T18:42:02.033Z,99845.56
2023-05-19T18:44:34.046Z,99843.16
2023-05-19T18:47:06.356Z,99845.56
2023-05-19T18:49:38.862Z,99851.00
2023-05-19T18:52:11.208Z,99850.13
2023-05-19T18:54:44.238Z,99847.91
2023-05-19T18:57:16.048Z,99844.22
2023-05-19T18:59:48.281Z,99849.19
2023-05-19T19:02:20.483Z,99850.94
2023-05-19T19:04:52.705Z,99850.03
2023-05-19T19:07:27.009Z,99851.44
2023-05-19T19:09:58.878Z,99858.50
2023-05-19T19:12:30.921Z,99863.56
2023-05-19T19:15:03.582Z,99857.81
2023-05-19T19:17:40.074Z,99856.97
2023-05-19T19:20:13.010Z,99858.53
2023-05-19T19:22:44.953Z,99877.69
2023-05-19T19:25:16.949Z,99869.63
2023-05-19T19:27:48.821Z,99871.84
2023-05-19T19:30:20.815Z,99862.84
2023-05-19T19:32:53.678Z,99871.41
2023-05-19T19:35:25.693Z,99871.75
2023-05-19T19:38:00.870Z,99869.91
2023-05-19T19:40:33.101Z,99878.28
2023-05-19T19:43:08.323Z,99872.31
2023-05-19T19:45:43.501Z,99881.28
2023-05-19T19:48:15.489Z,99886.34
2023-05-19T19:50:52.955Z,99880.34
2023-05-19T19:53:27.963Z,99887.72
2023-05-19T19:56:01.946Z,99885.06
2023-05-19T19:58:36.883Z,99883.03
2023-05-19T20:01:08.902Z,99883.66
2023-05-19T20:03:41.035Z,99875.75
2023-05-19T20:06:13.822Z,99882.09
2023-05-19T20:08:46.235Z,99883.34
2023-05-19T20:11:18.196Z,99878.38
2023-05-19T20:13:50.522Z,99878.56
2023-05-19T20:16:26.535Z,99873.75
2023-05-19T20:18:58.638Z,99878.78
2023-05-19T20:21:30.745Z,99875.19
2023-05-19T20:24:02.706Z,99876.22
2023-05-19T20:26:34.970Z,99876.09
2023-05-19T20:29:06.835Z,99876.66
2023-05-19T20:31:39.078Z,99873.16
2023-05-19T20:34:12.463Z,99873.03
2023-05-19T20:36:44.676Z,99878.22
2023-05-19T20:39:16.651Z,99887.75
2023-05-19T20:41:48.559Z,99886.78
2023-05-19T20:44:20.410Z,99893.91
2023-05-19T20:46:52.506Z,99893.88
2023-05-19T20:49:25.967Z,99900.75
2023-05-19T20:51:59.960Z,99883.25
2023-05-19T20:54:31.890Z,99892.91
2023-05-19T20:57:08.739Z,99885.28
2023-05-19T20:59:41.951Z,99887.47
2023-05-19T21:02:13.874Z,99883.72
2023-05-19T21:04:46.351Z,99880.22
2023-05-19T21:07:18.613Z,99892.19
2023-05-19T21:09:54.368Z,99887.28
2023-05-19T21:12:28.988Z,99884.31
2023-05-19T21:15:01.571Z,99876.34
2023-05-19T21:17:33.572Z,99878.16
2023-05-19T21:20:06.318Z,99890.44
2023-05-19T21:22:38.406Z,99882.84
2023-05-19T21:25:10.704Z,99881.19
2023-05-19T21:27:42.877Z,99869.25
2023-05-19T21:30:14.947Z,99870.94
2023-05-19T21:32:47.205Z,99889.00
2023-05-19T21:35:19.187Z,99878.91
2023-05-19T21:37:51.526Z,99894.84
2023-05-19T21:40:23.710Z,99902.78
2023-05-19T21:42:55.730Z,99906.47
2023-05-19T21:45:27.868Z,99911.63
2023-05-19T21:48:00.188Z,99919.72
2023-05-19T21:50:36.590Z,99923.72
2023-05-19T21:53:08.702Z,99926.34
2023-05-19T21:55:48.661Z,99925.38
2023-05-19T21:58:20.948Z,99922.06
2023-05-19T22:00:56.168Z,99928.03
2023-05-19T22:03:33.147Z,99931.34
2023-05-19T22:06:06.574Z,99926.84
2023-05-19T22:08:38.455Z,99929.69
2023-05-19T22:11:10.401Z,99922.06
2023-05-19T22:13:44.676Z,99920.75
2023-05-19T22:16:16.573Z,99921.91
2023-05-19T22:18:51.496Z,99918.09
2023-05-19T22:21:23.393Z,99921.59
2023-05-19T22:23:58.423Z,99924.53
2023-05-19T22:26:30.562Z,99920.72
2023-05-19T22:29:03.445Z,99932.34
2023-05-19T22:31:35.365Z,99918.94
2023-05-19T22:34:07.480Z,99923.41
2023-05-19T22:36:44.385Z,99918.75
2023-05-19T22:39:17.079Z,99910.28
2023-05-19T22:41:52.218Z,99907.50
2023-05-19T22:44:24.173Z,99900.88
2023-05-19T22:46:56.312Z,99895.75
2023-05-19T22:49:29.967Z,99883.50
2023-05-19T22:52:02.021Z,99880.84
2023-05-19T22:54:33.960Z,99883.50
2023-05-19T22:57:06.062Z,99881.50
2023-05-19T22:59:41.925Z,99881.34
2023-05-19T23:02:14.108Z,99886.31
2023-05-19T23:04:46.110Z,99881.00
2023-05-19T23:07:18.358Z,99885.16
2023-05-19T23:09:50.623Z,99888.44
2023-05-19T23:12:22.655Z,99890.94
2023-05-19T23:14:56.785Z,99884.97
2023-05-19T23:17:31.744Z,99877.72
2023-05-19T23:20:05.909Z,99877.56
2023-05-19T23:22:38.073Z,99877.72
2023-05-19T23:25:10.128Z,99877.19
2023-05-19T23:27:46.538Z,99881.34
2023-05-19T23:30:18.871Z,99879.69
2023-05-19T23:32:51.012Z,99870.06
2023-05-19T23:35:26.192Z,99871.41
2023-05-19T23:37:58.305Z,99870.91
2023-05-19T23:40:31.534Z,99873.25
2023-05-19T23:43:03.568Z,99878.84
2023-05-19T23:45:35.975Z,99873.56
2023-05-19T23:48:11.307Z,99876.03
2023-05-19T23:50:43.460Z,99877.88
2023-05-19T23:53:18.299Z,99875.56
2023-05-19T23:55:51.531Z,99880.34
2023-05-19T23:58:23.673Z,99874.38
